createdAt,value
2023-01-12T00:03:06.349Z,1.8
2023-01-12T00:08:50.515Z,1.5
2023-01-12T00:14:34.144Z,1.6
2023-01-12T00:20:17.658Z,1.7
2023-01-12T00:26:00.570Z,1.7
2023-01-12T00:31:43.834Z,1.8
2023-01-12T00:37:26.626Z,1.7
2023-01-12T00:43:09.554Z,1.6
2023-01-12T00:48:52.381Z,1.7
2023-01-12T00:54:35.158Z,1.9
2023-01-12T01:00:18.130Z,1.7
2023-01-12T01:06:07.317Z,2
2023-01-12T01:11:50.197Z,1.7
2023-01-12T01:17:33.187Z,1.6
2023-01-12T01:23:16.140Z,1.8
2023-01-12T01:28:58.941Z,1.6
2023-01-12T01:34:42.135Z,2.4
2023-01-12T01:40:25.026Z,1.6
2023-01-12T01:46:11.378Z,1.6
2023-01-12T01:51:57.647Z,1.8
2023-01-12T01:57:43.582Z,1.7
2023-01-12T02:03:27.630Z,1.6
2023-01-12T02:09:13.211Z,1.7
2023-01-12T02:14:56.842Z,1.5
2023-01-12T02:20:44.292Z,1.5
2023-01-12T02:26:41.113Z,1.8
2023-01-12T02:32:28.929Z,1.7
2023-01-12T02:38:17.027Z,1.7
2023-01-12T02:44:00.172Z,1.5
2023-01-12T02:49:44.834Z,1.8
2023-01-12T02:55:28.781Z,1.4
2023-01-12T03:01:12.543Z,1.8
2023-01-12T03:07:06.517Z,1.7
2023-01-12T03:12:50.176Z,1.9
2023-01-12T03:18:35.950Z,1.6
2023-01-12T03:24:20.659Z,2.2
2023-01-12T03:30:06.168Z,1.4
2023-01-12T03:35:52.937Z,1.9
2023-01-12T03:41:39.711Z,1.9
2023-01-12T03:47:24.426Z,1.7
2023-01-12T03:53:09.227Z,1.8
2023-01-12T03:58:52.828Z,1.6
2023-01-12T04:04:35.967Z,1.5
2023-01-12T04:10:18.903Z,1.5
2023-01-12T04:16:02.662Z,1.6
2023-01-12T04:21:45.684Z,1.7
2023-01-12T04:27:28.453Z,1.6
2023-01-12T04:33:11.446Z,1.7
2023-01-12T04:38:54.300Z,1.6
2023-01-12T04:44:37.068Z,1.8
2023-01-12T04:50:19.935Z,1.5
2023-01-12T04:56:04.568Z,1.5
2023-01-12T05:01:47.723Z,1.5
2023-01-12T05:07:30.768Z,1.6
2023-01-12T05:13:14.721Z,1.4
2023-01-12T05:18:57.522Z,1.7
2023-01-12T05:24:40.415Z,1.9
2023-01-12T05:30:23.441Z,1.3
2023-01-12T05:36:09.750Z,1.3
2023-01-12T05:41:52.625Z,1.5
2023-01-12T05:47:35.529Z,1.5
2023-01-12T05:53:18.373Z,1.7
2023-01-12T05:59:02.577Z,1.6
2023-01-12T06:04:45.939Z,1.4
2023-01-12T06:10:29.124Z,1.6
2023-01-12T06:16:12.592Z,1.5
2023-01-12T06:21:55.687Z,1.2
2023-01-12T06:27:40.375Z,1.3
2023-01-12T06:33:23.986Z,1.7
2023-01-12T06:39:06.805Z,1.6
2023-01-12T06:44:50.800Z,1.3
2023-01-12T06:50:33.533Z,1.4
2023-01-12T06:56:16.170Z,1.2
2023-01-12T07:01:59.179Z,1.6
2023-01-12T07:07:42.626Z,1.2
2023-01-12T07:13:26.420Z,1.4
2023-01-12T07:19:09.507Z,1.4
2023-01-12T07:24:52.717Z,1.1
2023-01-12T07:30:37.695Z,1.3
2023-01-12T07:36:20.845Z,1.4
2023-01-12T07:42:03.946Z,0.9
2023-01-12T07:47:51.653Z,1.2
2023-01-12T07:53:34.633Z,1.1
2023-01-12T07:59:17.761Z,1.3
2023-01-12T08:05:00.713Z,1.3
2023-01-12T08:10:43.822Z,1.1
2023-01-12T08:16:31.399Z,1
2023-01-12T08:22:16.166Z,0.9
2023-01-12T08:28:00.950Z,1
2023-01-12T08:33:44.158Z,0.9
2023-01-12T08:39:27.257Z,1.1
2023-01-12T08:45:10.818Z,1.2
2023-01-12T08:50:53.965Z,1.2
2023-01-12T08:56:37.437Z,1.4
2023-01-12T09:02:20.471Z,1.1
2023-01-12T09:08:04.546Z,1.1
2023-01-12T09:13:47.352Z,1.3
2023-01-12T09:19:30.490Z,1.4
2023-01-12T09:25:13.869Z,0.9
2023-01-12T09:30:56.875Z,1
2023-01-12T09:36:40.311Z,1.5
2023-01-12T09:42:24.630Z,1.1
2023-01-12T09:48:11.718Z,1
2023-01-12T09:53:54.926Z,0.9
2023-01-12T09:59:42.171Z,1
2023-01-12T10:05:41.570Z,1.1
2023-01-12T10:11:27.457Z,1
2023-01-12T10:17:16.960Z,1.2
2023-01-12T10:23:02.574Z,1
2023-01-12T10:28:46.796Z,1.1
2023-01-12T10:34:35.613Z,0.9
2023-01-12T10:40:30.624Z,1.3
2023-01-12T10:46:18.193Z,0.8
2023-01-12T10:52:03.136Z,1
2023-01-12T10:57:48.483Z,1.1
2023-01-12T11:03:34.562Z,1
2023-01-12T11:09:24.416Z,0.9
2023-01-12T11:15:13.125Z,0.9
2023-01-12T11:20:58.337Z,0.8
2023-01-12T11:26:46.653Z,0.7
2023-01-12T11:32:39.559Z,0.8
2023-01-12T11:38:25.778Z,0.7
2023-01-12T11:44:13.858Z,0.8
2023-01-12T11:49:59.932Z,0.6
2023-01-12T11:55:50.986Z,0.8
2023-01-12T12:01:40.845Z,0.7
2023-01-12T12:07:30.349Z,0.8
2023-01-12T12:13:25.096Z,0.8
2023-01-12T12:19:17.864Z,0.6
2023-01-12T12:25:14.829Z,0.7
2023-01-12T12:31:12.026Z,0.7
2023-01-12T12:36:58.424Z,0.8
2023-01-12T12:42:53.478Z,0.7
2023-01-12T12:48:42.219Z,0.8
2023-01-12T12:54:26.288Z,0.7
2023-01-12T13:00:20.941Z,0.7
2023-01-12T13:06:11.982Z,0.8
2023-01-12T13:11:56.360Z,0.7
2023-01-12T13:17:46.241Z,0.9
2023-01-12T13:23:40.953Z,0.7
2023-01-12T13:29:36.229Z,0.8
2023-01-12T13:35:45.318Z,0.7
2023-01-12T13:41:30.726Z,0.7
2023-01-12T13:47:17.206Z,0.8
2023-01-12T13:53:04.175Z,0.9
2023-01-12T13:58:47.229Z,0.8
2023-01-12T14:04:37.421Z,0.9
2023-01-12T14:10:27.676Z,0.7
2023-01-12T14:16:11.705Z,0.7
2023-01-12T14:22:01.167Z,0.6
2023-01-12T14:27:48.875Z,0.7
2023-01-12T14:33:33.003Z,1
2023-01-12T14:39:17.594Z,0.8
2023-01-12T14:45:00.512Z,0.7
2023-01-12T14:50:48.298Z,0.7
2023-01-12T14:56:33.867Z,0.7
2023-01-12T15:02:27.005Z,0.7
2023-01-12T15:08:22.797Z,1
2023-01-12T15:14:06.649Z,0.7
2023-01-12T15:19:49.491Z,0.7
2023-01-12T15:25:32.359Z,0.6
2023-01-12T15:31:23.205Z,0.7
2023-01-12T15:37:06.082Z,0.7
2023-01-12T15:42:49.208Z,0.7
2023-01-12T15:48:34.963Z,0.7
2023-01-12T15:54:18.810Z,0.9
2023-01-12T16:00:01.726Z,0.7
2023-01-12T16:05:44.692Z,0.8
2023-01-12T16:11:27.403Z,0.8
2023-01-12T16:17:10.526Z,0.8
2023-01-12T16:22:53.607Z,0.9
2023-01-12T16:28:36.869Z,0.8
2023-01-12T16:34:20.196Z,0.8
2023-01-12T16:40:03.402Z,0.9
2023-01-12T16:45:46.255Z,0.9
2023-01-12T16:51:29.669Z,1.1
2023-01-12T16:57:13.236Z,1
2023-01-12T17:02:56.557Z,0.8
2023-01-12T17:08:40.627Z,0.9
2023-01-12T17:14:24.457Z,0.9
2023-01-12T17:20:08.926Z,1
2023-01-12T17:25:52.607Z,0.9
2023-01-12T17:31:38.684Z,1
2023-01-12T17:37:21.741Z,4.2
2023-01-12T17:43:05.807Z,4
2023-01-12T17:48:52.449Z,3.2
2023-01-12T17:54:35.640Z,3.5
2023-01-12T18:00:19.566Z,3.2
2023-01-12T18:06:18.417Z,2.8
2023-01-12T18:12:05.513Z,2.5
2023-01-12T18:17:48.423Z,2.3
2023-01-12T18:23:31.500Z,2.5
2023-01-12T18:29:14.467Z,2.1
2023-01-12T18:34:57.272Z,1.8
2023-01-12T18:40:40.195Z,1.9
2023-01-12T18:46:23.298Z,1.9
2023-01-12T18:52:06.508Z,1.7
2023-01-12T18:57:49.282Z,1.5
2023-01-12T19:03:32.196Z,1.8
2023-01-12T19:09:15.148Z,1.9
2023-01-12T19:14:57.921Z,1.5
2023-01-12T19:20:40.803Z,1.6
2023-01-12T19:26:23.606Z,1.5
2023-01-12T19:32:06.467Z,1.7
2023-01-12T19:37:51.887Z,1.4
2023-01-12T19:43:34.880Z,1.4
2023-01-12T19:49:17.840Z,1.3
2023-01-12T19:55:00.884Z,1.3
2023-01-12T20:00:44.581Z,1.4
2023-01-12T20:06:27.557Z,1.3
2023-01-12T20:12:10.498Z,1.2
2023-01-12T20:17:53.312Z,1.3
2023-01-12T20:23:36.092Z,1.1
2023-01-12T20:29:19.464Z,1.2
2023-01-12T20:35:03.639Z,1
2023-01-12T20:40:47.267Z,1.2
2023-01-12T20:46:30.148Z,1.1
2023-01-12T20:52:13.073Z,1.2
2023-01-12T20:57:55.889Z,1.1
2023-01-12T21:03:39.106Z,0.9
2023-01-12T21:09:21.876Z,0.9
2023-01-12T21:15:04.906Z,0.9
2023-01-12T21:20:47.870Z,0.9
2023-01-12T21:26:32.847Z,1
2023-01-12T21:32:17.663Z,1
2023-01-12T21:38:01.548Z,0.8
2023-01-12T21:43:44.838Z,0.9
2023-01-12T21:49:27.971Z,0.9
2023-01-12T21:55:11.145Z,1.1
2023-01-12T22:00:54.872Z,0.9
2023-01-12T22:06:38.526Z,1
2023-01-12T22:12:21.169Z,0.9
2023-01-12T22:18:03.963Z,0.9
2023-01-12T22:23:47.065Z,0.9
2023-01-12T22:29:30.114Z,0.7
2023-01-12T22:35:14.271Z,0.8
2023-01-12T22:40:57.096Z,0.8
2023-01-12T22:46:39.907Z,0.7
2023-01-12T22:52:22.781Z,0.7
2023-01-12T22:58:05.565Z,0.7
2023-01-12T23:03:48.277Z,0.7
2023-01-12T23:09:31.090Z,0.7
2023-01-12T23:15:14.052Z,0.6
2023-01-12T23:21:01.614Z,0.8
2023-01-12T23:26:45.390Z,0.6
2023-01-12T23:32:28.255Z,0.6
2023-01-12T23:38:14.723Z,0.5
2023-01-12T23:43:58.535Z,0.6
2023-01-12T23:49:41.328Z,0.6
2023-01-12T23:55:24.384Z,0.6
